Time;durP1;ratioP1;P1;durP2;ratioP2;P2;SDS_P1;SDS_P2;PMS_P1;PMS_P2;Temp;Humidity;BMP_temperature;BMP_pressure;BME280_temperature;BME280_humidity;BME280_pressure;Samples;Min_cycle;Max_cycle;Signal;HPM_P1;HPM_P2
2023/01/01 00:03:35;;;;;;;1.70;1.40;;;;;;;19.28;57.83;97073.38;10330383;28;20134;-52
2023/01/01 00:14:38;;;;;;;2.50;1.33;;;;;;;19.26;57.73;97089.09;10311662;28;20050;-49
2023/01/01 00:19:57;;;;;;;1.90;1.35;;;;;;;19.24;57.77;97111.03;10339323;28;20434;-51
2023/01/01 00:25:17;;;;;;;2.10;1.42;;;;;;;19.24;57.64;97111.03;10352729;28;20507;-51
2023/01/01 00:30:38;;;;;;;1.30;1.20;;;;;;;19.23;57.56;97098.63;10332517;28;20051;-50
2023/01/01 00:36:08;;;;;;;1.40;1.30;;;;;;;19.22;57.50;97107.06;10333703;28;20070;-49
2023/01/01 00:41:27;;;;;;;1.55;1.30;;;;;;;19.21;57.56;97095.47;10337525;28;20121;-51
2023/01/01 00:46:46;;;;;;;1.92;1.45;;;;;;;19.20;57.44;97096.56;10351712;28;20534;-51
2023/01/01 00:52:06;;;;;;;2.80;1.30;;;;;;;19.18;57.37;97101.47;10339048;28;20403;-51
2023/01/01 00:57:25;;;;;;;2.08;1.60;;;;;;;19.19;57.41;97096.84;10338140;28;20059;-50
2023/01/01 01:02:44;;;;;;;1.17;1.08;;;;;;;19.18;57.28;97101.47;10338326;28;20418;-52
2023/01/01 01:08:04;;;;;;;2.15;1.40;;;;;;;19.17;57.13;97110.69;10336778;28;20065;-52
2023/01/01 01:13:24;;;;;;;1.90;1.38;;;;;;;19.16;57.44;97117.19;10337295;28;20109;-51
2023/01/01 01:18:44;;;;;;;1.88;1.38;;;;;;;19.15;57.29;97119.13;10350496;28;20510;-51
2023/01/01 01:24:03;;;;;;;1.60;1.20;;;;;;;19.13;57.24;97128.63;10337455;28;20058;-51
2023/01/01 01:29:23;;;;;;;1.38;1.27;;;;;;;19.13;57.24;97145.63;10334854;28;20057;-51
2023/01/01 01:34:43;;;;;;;1.48;1.20;;;;;;;19.12;57.08;97138.63;10331281;28;20058;-52
2023/01/01 01:40:03;;;;;;;1.42;1.23;;;;;;;19.12;57.19;97135.94;10336712;28;20157;-51
2023/01/01 01:45:23;;;;;;;1.40;1.17;;;;;;;19.11;57.19;97149.75;10336389;28;20062;-51
2023/01/01 01:50:44;;;;;;;1.40;1.30;;;;;;;19.10;57.11;97142.75;10336313;28;20057;-52
2023/01/01 01:56:10;;;;;;;1.92;1.40;;;;;;;19.09;57.12;97154.66;10336510;28;20062;-52
2023/01/01 02:01:30;;;;;;;1.73;1.20;;;;;;;19.08;57.09;97150.38;10321493;28;20054;-51
2023/01/01 02:06:51;;;;;;;1.67;1.25;;;;;;;19.07;57.10;97149.59;10335201;28;20062;-50
2023/01/01 02:12:11;;;;;;;1.40;1.15;;;;;;;19.07;57.08;97146.06;10335712;28;20116;-52
2023/01/01 02:17:46;;;;;;;1.50;1.40;;;;;;;19.06;56.98;97152.59;10326386;28;20050;-51
2023/01/01 02:23:45;;;;;;;1.83;1.08;;;;;;;19.05;57.07;97151.81;10333562;28;20066;-51
2023/01/01 02:29:19;;;;;;;1.13;1.02;;;;;;;19.03;57.00;97159.41;10343497;28;20462;-51
2023/01/01 02:34:47;;;;;;;1.40;1.20;;;;;;;19.03;56.99;97159.41;10324557;28;20050;-54
2023/01/01 02:40:07;;;;;;;1.90;1.10;;;;;;;19.01;57.02;97150.03;10313865;28;20057;-50
2023/01/01 02:45:26;;;;;;;1.67;1.13;;;;;;;19.01;56.95;97167.00;10333980;28;20054;-52
2023/01/01 02:50:46;;;;;;;1.15;1.05;;;;;;;19.00;56.92;97157.34;10324250;28;20065;-51
2023/01/01 02:56:31;;;;;;;1.50;1.20;;;;;;;19.00;57.03;97165.44;10319098;28;20062;-52
2023/01/01 03:01:58;;;;;;;1.45;1.08;;;;;;;19.00;56.88;97162.72;10326146;28;20054;-51
2023/01/01 03:07:23;;;;;;;1.30;1.20;;;;;;;18.99;56.73;97160.34;10303707;28;20051;-50
2023/01/01 03:12:47;;;;;;;1.13;0.93;;;;;;;18.98;56.73;97159.56;10332984;28;20050;-51
2023/01/01 03:18:17;;;;;;;1.25;1.15;;;;;;;18.98;56.86;97156.06;10333021;28;20054;-50
2023/01/01 03:23:40;;;;;;;1.30;1.20;;;;;;;18.95;56.82;97163.69;10329973;28;20086;-51
2023/01/01 03:29:01;;;;;;;1.20;0.90;;;;;;;18.94;56.69;97155.88;10305155;28;20537;-51
2023/01/01 03:34:27;;;;;;;1.33;1.20;;;;;;;18.94;56.76;97158.59;10325423;28;20086;-51
2023/01/01 03:39:50;;;;;;;1.20;1.10;;;;;;;18.93;56.61;97162.38;10345543;28;20051;-51
2023/01/01 03:45:17;;;;;;;1.42;1.00;;;;;;;18.92;56.66;97166.19;10329047;28;20065;-52
2023/01/01 03:50:59;;;;;;;1.20;1.10;;;;;;;18.91;56.70;97173.47;10342297;28;20054;-51
2023/01/01 03:56:42;;;;;;;1.55;1.20;;;;;;;18.91;56.61;97170.00;10329116;28;20058;-51
2023/01/01 04:02:03;;;;;;;1.55;1.00;;;;;;;18.90;56.67;97171.13;10327559;28;20067;-52
2023/01/01 04:07:23;;;;;;;1.25;1.15;;;;;;;18.89;56.70;97175.69;10318303;28;20061;-52
2023/01/01 04:12:50;;;;;;;1.15;1.05;;;;;;;18.89;56.64;97169.50;10328761;28;20121;-52
2023/01/01 04:18:10;;;;;;;1.38;1.15;;;;;;;18.88;56.63;97173.31;10306298;28;20109;-51
2023/01/01 04:23:29;;;;;;;0.93;0.93;;;;;;;18.87;56.64;97166.31;10344334;28;20053;-50
2023/01/01 04:28:48;;;;;;;1.25;1.08;;;;;;;18.86;56.64;97168.22;10344251;28;20058;-49
2023/01/01 04:34:08;;;;;;;0.90;0.90;;;;;;;18.86;56.68;97175.53;10310679;28;20062;-50
2023/01/01 04:39:27;;;;;;;0.95;0.95;;;;;;;18.83;56.61;97165.34;10320703;28;20055;-50
2023/01/01 04:44:47;;;;;;;0.80;0.80;;;;;;;18.83;56.53;97159.97;10332027;28;20062;-51
2023/01/01 04:50:07;;;;;;;1.08;0.98;;;;;;;18.83;56.54;97165.34;10338353;28;20403;-51
2023/01/01 04:55:27;;;;;;;1.10;1.00;;;;;;;18.81;56.59;97167.56;10338783;28;20069;-51
2023/01/01 05:00:50;;;;;;;0.98;0.98;;;;;;;18.81;56.67;97171.06;10335729;28;20062;-51
2023/01/01 05:06:11;;;;;;;1.25;1.10;;;;;;;18.80;56.51;97171.34;10335765;28;20066;-52
2023/01/01 05:11:31;;;;;;;1.30;1.20;;;;;;;18.79;56.62;97170.53;10337585;28;20130;-51
2023/01/01 05:16:51;;;;;;;1.00;0.90;;;;;;;18.78;56.54;97179.75;10334817;28;20158;-51
2023/01/01 05:22:11;;;;;;;1.20;1.10;;;;;;;18.77;56.61;97178.94;10337833;28;20070;-52
2023/01/01 05:27:30;;;;;;;1.10;0.98;;;;;;;18.76;56.62;97177.38;10337555;28;20061;-52
2023/01/01 05:32:49;;;;;;;0.90;0.90;;;;;;;18.75;56.53;97186.56;10344596;28;20053;-51
2023/01/01 05:38:09;;;;;;;0.82;0.82;;;;;;;18.75;56.57;97183.84;10336423;28;20518;-51
2023/01/01 05:43:28;;;;;;;1.77;0.90;;;;;;;18.75;56.51;97199.25;10336044;28;20489;-51
2023/01/01 05:48:48;;;;;;;0.85;0.85;;;;;;;18.73;56.48;97204.97;10336883;28;20410;-51
2023/01/01 05:54:08;;;;;;;0.90;0.90;;;;;;;18.73;56.49;97209.56;10336313;28;20065;-51
2023/01/01 05:59:28;;;;;;;0.80;0.80;;;;;;;18.73;56.53;97220.38;10336317;28;20065;-51
2023/01/01 06:04:47;;;;;;;0.80;0.80;;;;;;;18.71;56.40;97223.38;10335603;28;20058;-51
2023/01/01 06:10:07;;;;;;;1.10;1.00;;;;;;;18.71;56.43;97226.06;10335109;28;20494;-51
2023/01/01 06:15:27;;;;;;;0.82;0.82;;;;;;;18.70;56.43;97223.66;10332134;28;20081;-51
2023/01/01 06:20:46;;;;;;;0.82;0.82;;;;;;;18.69;56.50;97230.97;10348114;28;20042;-51
2023/01/01 06:26:06;;;;;;;1.00;0.90;;;;;;;18.69;56.48;97243.69;10347147;28;20573;-50
2023/01/01 06:31:27;;;;;;;0.80;0.80;;;;;;;18.67;56.27;97249.38;10305959;28;20094;-52
2023/01/01 06:36:46;;;;;;;1.02;0.98;;;;;;;18.68;56.37;97247.47;10313329;28;20466;-50
2023/01/01 06:42:05;;;;;;;0.88;0.88;;;;;;;18.67;56.40;97243.19;10333760;28;20062;-51
2023/01/01 06:47:25;;;;;;;0.98;0.98;;;;;;;18.66;56.37;97237.00;10333593;28;20050;-50
2023/01/01 06:52:46;;;;;;;0.80;0.80;;;;;;;18.65;56.23;97254.28;10312376;28;20109;-50
2023/01/01 06:58:08;;;;;;;1.00;0.90;;;;;;;18.66;56.18;97257.78;10330719;28;20097;-50
2023/01/01 07:03:28;;;;;;;0.80;0.80;;;;;;;18.66;56.33;97261.28;10320135;28;20054;-51
2023/01/01 07:08:47;;;;;;;0.98;0.90;;;;;;;18.67;56.32;97278.28;10321748;28;20055;-51
2023/01/01 07:14:07;;;;;;;0.80;0.80;;;;;;;18.68;56.23;97282.53;10333193;28;20465;-51
2023/01/01 07:19:26;;;;;;;0.88;0.88;;;;;;;18.68;56.25;97290.66;10329345;28;20050;-51
2023/01/01 07:24:46;;;;;;;0.98;0.90;;;;;;;18.69;56.36;97306.53;10322416;28;20062;-50
2023/01/01 07:30:06;;;;;;;1.05;0.73;;;;;;;18.70;56.13;97313.53;10306709;28;20054;-50
2023/01/01 07:35:26;;;;;;;1.05;0.90;;;;;;;18.72;56.27;97327.53;10326443;28;20058;-52
2023/01/01 07:40:45;;;;;;;0.85;0.75;;;;;;;18.72;56.24;97319.44;10316228;28;20051;-52
2023/01/01 07:46:04;;;;;;;0.80;0.80;;;;;;;18.74;56.15;97319.91;10325686;28;20515;-51
2023/01/01 07:51:24;;;;;;;0.73;0.73;;;;;;;18.75;56.15;97326.91;10331197;28;20062;-52
2023/01/01 07:56:44;;;;;;;0.93;0.80;;;;;;;18.77;56.11;97338.19;10313628;28;20066;-52
2023/01/01 08:02:03;;;;;;;0.77;0.77;;;;;;;18.78;56.04;97329.00;10286238;28;20062;-50
2023/01/01 08:07:24;;;;;;;1.30;0.80;;;;;;;18.81;56.08;97334.91;10268674;28;20062;-51
2023/01/01 08:12:44;;;;;;;0.80;0.80;;;;;;;18.86;56.07;97342.91;10263985;28;20059;-52
2023/01/01 08:18:04;;;;;;;0.88;0.88;;;;;;;18.87;56.07;97339.09;10266907;28;20108;-52
2023/01/01 08:23:24;;;;;;;0.77;0.70;;;;;;;18.87;56.01;97350.69;10296104;28;20062;-50
2023/01/01 08:28:44;;;;;;;0.70;0.70;;;;;;;18.90;56.08;97360.88;10338768;28;20050;-52
2023/01/01 08:34:03;;;;;;;1.02;0.80;;;;;;;18.92;56.18;97360.59;10329434;28;20070;-52
2023/01/01 08:39:23;;;;;;;0.80;0.80;;;;;;;18.93;56.20;97360.28;10335211;28;20529;-51
2023/01/01 08:44:42;;;;;;;0.70;0.70;;;;;;;18.96;56.37;97358.84;10332796;28;20059;-50
2023/01/01 08:50:01;;;;;;;0.70;0.70;;;;;;;18.97;56.29;97360.44;10337504;28;20058;-50
2023/01/01 08:55:21;;;;;;;4.75;0.70;;;;;;;19.00;56.78;97357.16;10351723;28;20054;-50
2023/01/01 09:00:41;;;;;;;0.80;0.80;;;;;;;19.03;56.68;97367.31;10319975;28;20070;-51
2023/01/01 09:06:00;;;;;;;0.70;0.70;;;;;;;19.06;56.92;97374.03;10324849;28;20054;-49
2023/01/01 09:11:23;;;;;;;0.93;0.80;;;;;;;19.08;57.04;97372.59;10336421;28;20050;-52
2023/01/01 09:16:42;;;;;;;0.70;0.70;;;;;;;19.11;57.29;97365.78;10338070;28;20062;-51
2023/01/01 09:22:02;;;;;;;0.70;0.70;;;;;;;19.11;57.50;97372.00;10337073;28;20058;-49
2023/01/01 09:27:22;;;;;;;0.77;0.77;;;;;;;19.16;57.56;97371.06;10350137;28;20499;-48
2023/01/01 09:32:41;;;;;;;0.75;0.75;;;;;;;19.17;57.72;97378.09;10343507;28;20430;-48
2023/01/01 09:38:01;;;;;;;2.50;0.70;;;;;;;19.21;57.87;97397.16;10336848;28;20109;-48
2023/01/01 09:43:24;;;;;;;1.75;0.80;;;;;;;19.21;57.95;97389.03;10336445;28;20062;-51
2023/01/01 09:48:52;;;;;;;0.88;0.80;;;;;;;19.24;58.14;97383.03;10336703;28;20395;-50
2023/01/01 09:54:22;;;;;;;1.10;0.67;;;;;;;19.24;58.04;97378.44;10321963;28;20121;-52
2023/01/01 09:59:42;;;;;;;1.00;0.70;;;;;;;19.26;58.01;97383.53;10336157;28;20054;-51
2023/01/01 10:05:25;;;;;;;0.68;0.68;;;;;;;19.29;58.13;97377.53;10348813;28;20465;-52
2023/01/01 10:11:09;;;;;;;1.15;0.80;;;;;;;19.31;58.27;97369.91;10325328;28;20059;-52
2023/01/01 10:16:47;;;;;;;0.60;0.60;;;;;;;19.32;58.12;97366.09;10319384;28;20109;-57
2023/01/01 10:22:14;;;;;;;1.85;0.70;;;;;;;19.34;58.16;97358.47;10320284;28;20137;-58
2023/01/01 10:27:37;;;;;;;0.75;0.75;;;;;;;19.37;58.41;97368.66;10295150;28;20069;-51
2023/01/01 10:32:58;;;;;;;0.75;0.75;;;;;;;19.39;58.42;97362.97;10314834;28;20058;-61
2023/01/01 10:38:24;;;;;;;0.73;0.70;;;;;;;19.41;58.59;97358.03;10347839;28;20433;-60
2023/01/01 10:43:44;;;;;;;1.98;0.80;;;;;;;19.42;58.60;97357.72;10331745;28;20077;-54
2023/01/01 10:49:10;;;;;;;0.73;0.70;;;;;;;19.44;58.47;97363.59;10318240;28;20506;-55
2023/01/01 10:54:33;;;;;;;1.52;0.82;;;;;;;19.44;58.36;97363.59;10332046;28;20065;-52
2023/01/01 10:59:53;;;;;;;0.98;0.70;;;;;;;19.45;58.24;97376.03;10307491;28;20058;-53
2023/01/01 11:05:16;;;;;;;1.00;0.90;;;;;;;19.46;58.04;97377.59;10328153;28;20066;-52
2023/01/01 11:10:36;;;;;;;1.95;0.90;;;;;;;19.47;57.91;97379.22;10333540;28;20462;-52
2023/01/01 11:15:56;;;;;;;0.90;0.90;;;;;;;19.47;57.90;97368.41;10318306;28;20062;-50
2023/01/01 11:21:21;;;;;;;1.42;0.80;;;;;;;19.48;57.78;97375.41;10332427;28;20403;-50
2023/01/01 11:26:40;;;;;;;0.70;0.70;;;;;;;19.49;57.83;97382.41;10330037;28;20054;-52
2023/01/01 11:32:00;;;;;;;2.05;0.80;;;;;;;19.48;57.79;97378.13;10314846;28;20129;-51
2023/01/01 11:37:29;;;;;;;0.77;0.77;;;;;;;19.50;57.72;97378.59;10331411;28;20410;-47
2023/01/01 11:42:52;;;;;;;2.10;0.80;;;;;;;19.50;57.78;97378.59;10318154;28;20064;-52
2023/01/01 11:48:30;;;;;;;1.35;0.90;;;;;;;19.50;57.94;97377.78;10317759;28;20077;-49
2023/01/01 11:53:50;;;;;;;0.75;0.73;;;;;;;19.50;57.74;97375.09;10317384;28;20133;-53
2023/01/01 11:59:17;;;;;;;3.75;1.08;;;;;;;19.50;57.94;97372.38;10332527;28;20138;-51
2023/01/01 12:04:39;;;;;;;1.23;0.80;;;;;;;19.51;57.90;97360.47;10332029;28;20062;-54
2023/01/01 12:10:17;;;;;;;1.75;0.80;;;;;;;19.50;57.95;97351.59;10345089;28;20054;-53
2023/01/01 12:15:40;;;;;;;1.30;0.85;;;;;;;19.50;58.07;97340.78;10331424;28;20058;-54
2023/01/01 12:21:09;;;;;;;1.80;0.75;;;;;;;19.52;58.19;97345.84;10316651;28;20050;-53
2023/01/01 12:26:45;;;;;;;1.08;0.88;;;;;;;19.51;58.20;97347.75;10330576;28;20046;-54
2023/01/01 12:32:14;;;;;;;0.80;0.80;;;;;;;19.52;58.36;97348.53;10326074;28;20062;-54
2023/01/01 12:38:12;;;;;;;1.08;0.98;;;;;;;19.51;58.18;97358.56;10322109;28;20046;-54
2023/01/01 12:43:45;;;;;;;0.90;0.90;;;;;;;19.52;58.04;97345.84;10331588;28;20054;-54
2023/01/01 12:49:34;;;;;;;1.23;1.10;;;;;;;19.51;57.70;97352.38;10330560;28;20742;-53
2023/01/01 12:55:23;;;;;;;1.35;0.95;;;;;;;19.50;57.80;97362.41;10343836;28;20428;-54
2023/01/01 13:00:54;;;;;;;2.78;1.50;;;;;;;19.51;57.80;97363.97;10316338;28;20058;-56
2023/01/01 13:06:16;;;;;;;3.42;1.30;;;;;;;19.51;57.79;97349.66;10333426;28;20403;-52
2023/01/01 13:11:37;;;;;;;1.95;1.17;;;;;;;19.51;57.87;97358.56;10336536;28;20454;-54
2023/01/01 13:16:57;;;;;;;2.20;1.30;;;;;;;19.50;57.88;97356.16;10323291;28;20057;-54
2023/01/01 13:22:25;;;;;;;2.47;1.35;;;;;;;19.49;57.83;97347.28;10337686;28;20054;-54
2023/01/01 13:27:56;;;;;;;3.53;1.40;;;;;;;19.50;57.87;97339.97;10337501;28;20062;-54
2023/01/01 13:33:28;;;;;;;3.25;1.60;;;;;;;19.49;57.93;97346.47;10331678;28;20058;-53
2023/01/01 13:38:54;;;;;;;2.42;1.70;;;;;;;19.49;57.90;97346.47;10336344;28;20050;-54
2023/01/01 13:44:20;;;;;;;1.58;1.30;;;;;;;19.48;58.14;97337.59;10349849;28;20409;-53
2023/01/01 13:50:19;;;;;;;3.83;1.48;;;;;;;19.47;58.18;97330.56;10350004;28;20069;-54
2023/01/01 13:55:51;;;;;;;2.85;1.55;;;;;;;19.46;58.09;97320.84;10258801;28;20065;-54
2023/01/01 14:01:11;;;;;;;2.33;1.40;;;;;;;19.47;58.05;97327.09;10335123;28;20046;-55
2023/01/01 14:06:36;;;;;;;2.83;1.70;;;;;;;19.46;58.04;97334.38;10347842;28;20054;-58
2023/01/01 14:11:56;;;;;;;2.33;1.30;;;;;;;19.46;58.05;97328.19;10334614;28;20062;-59
2023/01/01 14:17:16;;;;;;;3.22;1.50;;;;;;;19.46;58.28;97334.38;10334361;28;20052;-57
2023/01/01 14:22:35;;;;;;;10.52;2.40;;;;;;;19.45;57.88;97337.41;10334926;28;20113;-60
2023/01/01 14:27:57;;;;;;;8.38;3.17;;;;;;;19.45;58.63;97334.69;10334496;28;20054;-56
2023/01/01 14:33:30;;;;;;;9.13;5.10;;;;;;;19.46;60.22;97345.19;10331923;28;20059;-56
2023/01/01 14:38:52;;;;;;;6.60;3.47;;;;;;;19.47;61.01;97333.28;10325217;28;20066;-56
2023/01/01 14:44:13;;;;;;;4.63;3.08;;;;;;;19.49;61.53;97333.75;10308299;28;20066;-56
2023/01/01 14:49:36;;;;;;;5.93;2.90;;;;;;;19.49;62.02;97339.16;10324562;28;20058;-52
2023/01/01 14:54:58;;;;;;;6.18;2.88;;;;;;;19.51;62.69;97341.56;10319323;28;20063;-48
2023/01/01 15:00:24;;;;;;;4.95;2.88;;;;;;;19.50;62.69;97346.19;10347290;28;20053;-52
2023/01/01 15:05:45;;;;;;;6.05;2.28;;;;;;;19.50;62.29;97351.59;10317683;28;20054;-58
2023/01/01 15:11:05;;;;;;;4.38;2.28;;;;;;;19.48;61.99;97337.59;10304594;28;20058;-58
2023/01/01 15:16:24;;;;;;;4.82;2.40;;;;;;;19.49;61.61;97341.88;10315337;28;20506;-55
2023/01/01 15:21:44;;;;;;;2.78;2.03;;;;;;;19.47;61.44;97338.69;10333539;28;20058;-62
2023/01/01 15:27:05;;;;;;;3.90;2.10;;;;;;;19.46;61.17;97338.97;10319940;28;20065;-61
2023/01/01 15:32:27;;;;;;;3.65;1.85;;;;;;;19.44;60.98;97344.69;10327130;28;20062;-63
2023/01/01 15:37:54;;;;;;;2.90;2.08;;;;;;;19.44;60.82;97349.31;10324629;28;20049;-56
2023/01/01 15:43:19;;;;;;;5.10;2.03;;;;;;;19.44;60.62;97362.81;10331295;28;20058;-60
2023/01/01 15:48:57;;;;;;;3.60;2.00;;;;;;;19.44;60.43;97362.81;10322320;28;20062;-58
2023/01/01 15:54:17;;;;;;;3.23;1.90;;;;;;;19.42;60.31;97354.22;10296020;28;20462;-57
2023/01/01 15:59:38;;;;;;;2.45;1.90;;;;;;;19.43;60.29;97374.75;10300420;28;20392;-56
2023/01/01 16:04:57;;;;;;;3.58;2.00;;;;;;;19.41;60.34;97369.66;10327699;28;20063;-54
2023/01/01 16:10:17;;;;;;;3.85;1.88;;;;;;;19.41;60.14;97385.84;10330951;28;20411;-55
2023/01/01 16:15:37;;;;;;;3.17;1.83;;;;;;;19.41;59.47;97391.25;10303528;28;20051;-53
2023/01/01 16:20:57;;;;;;;2.90;1.70;;;;;;;19.40;59.36;97384.25;10317994;28;20096;-50
2023/01/01 16:26:16;;;;;;;4.90;2.35;;;;;;;19.39;59.25;97387.28;10317291;28;20109;-51
2023/01/01 16:31:36;;;;;;;2.88;1.77;;;;;;;19.39;59.19;97387.28;10304133;28;20490;-55
2023/01/01 16:36:56;;;;;;;2.75;1.85;;;;;;;19.38;59.29;97386.47;10280702;28;20055;-60
2023/01/01 16:42:16;;;;;;;4.45;1.90;;;;;;;19.38;59.33;97388.38;10325458;28;20054;-59
2023/01/01 16:47:36;;;;;;;3.13;1.80;;;;;;;19.37;59.32;97390.28;10336621;28;20061;-57
2023/01/01 16:52:55;;;;;;;4.07;1.60;;;;;;;19.37;59.38;97390.28;10338045;28;20058;-57
2023/01/01 16:58:14;;;;;;;2.83;1.88;;;;;;;19.35;59.42;97393.28;10337665;28;20050;-56
2023/01/01 17:03:34;;;;;;;4.75;1.95;;;;;;;19.35;59.36;97392.50;10338552;28;20062;-50
2023/01/01 17:08:54;;;;;;;3.15;1.65;;;;;;;19.35;59.25;97395.19;10338691;28;20054;-53
2023/01/01 17:14:13;;;;;;;1.95;1.70;;;;;;;19.35;59.24;97403.31;10338008;28;20062;-50
2023/01/01 17:19:33;;;;;;;2.00;1.80;;;;;;;19.34;59.25;97399.00;10350970;28;20058;-50
2023/01/01 17:24:52;;;;;;;2.67;1.70;;;;;;;19.34;59.23;97407.09;10337621;28;20051;-53
2023/01/01 17:30:13;;;;;;;2.47;1.83;;;;;;;19.33;59.18;97408.22;10336832;28;20050;-52
2023/01/01 17:35:32;;;;;;;2.70;2.03;;;;;;;19.33;59.31;97408.22;10335159;28;20050;-51
2023/01/01 17:40:52;;;;;;;3.00;1.70;;;;;;;19.32;59.31;97410.09;10337125;28;20047;-53
2023/01/01 17:46:14;;;;;;;2.45;1.73;;;;;;;19.33;59.20;97410.91;10349716;28;20470;-49
2023/01/01 17:51:34;;;;;;;2.50;1.80;;;;;;;19.33;59.26;97405.53;10334977;28;20113;-50
2023/01/01 17:56:57;;;;;;;2.95;1.77;;;;;;;19.32;59.28;97422.81;10326630;28;20062;-52
2023/01/01 18:02:16;;;;;;;2.97;1.70;;;;;;;19.31;59.31;97410.44;10336577;28;20055;-54
2023/01/01 18:07:36;;;;;;;3.05;1.98;;;;;;;19.30;59.26;97415.00;10336295;28;20125;-52
2023/01/01 18:12:56;;;;;;;6.43;1.70;;;;;;;19.31;59.47;97418.53;10335007;28;20058;-53
2023/01/01 18:18:16;;;;;;;2.92;1.85;;;;;;;19.30;59.50;97419.63;10334768;28;20050;-52
2023/01/01 18:23:37;;;;;;;4.93;1.65;;;;;;;19.31;59.88;97423.94;10320406;28;20117;-64
2023/01/01 18:28:59;;;;;;;5.68;1.70;;;;;;;19.30;60.09;97422.31;10334273;28;20051;-58
2023/01/01 18:34:18;;;;;;;4.13;1.77;;;;;;;19.30;60.05;97416.94;10333077;28;20078;-58
2023/01/01 18:39:40;;;;;;;3.55;1.90;;;;;;;19.28;59.92;97411.81;10324633;28;20050;-56
2023/01/01 18:45:21;;;;;;;2.72;1.90;;;;;;;19.28;59.95;97408.34;10333558;28;20128;-57
2023/01/01 18:50:41;;;;;;;3.47;1.83;;;;;;;19.27;60.09;97402.13;10333698;28;20054;-53
2023/01/01 18:56:09;;;;;;;3.25;1.90;;;;;;;19.27;60.09;97398.66;10329462;28;20411;-55
2023/01/01 19:01:30;;;;;;;3.17;2.10;;;;;;;19.26;59.88;97397.03;10327110;28;20059;-57
2023/01/01 19:06:50;;;;;;;2.08;1.63;;;;;;;19.26;59.85;97391.63;10320481;28;20055;-54
2023/01/01 19:12:12;;;;;;;3.72;2.20;;;;;;;19.24;59.77;97391.16;10333345;28;20062;-67
2023/01/01 19:17:32;;;;;;;1.70;1.60;;;;;;;19.25;59.78;97393.53;10331519;28;20406;-71
2023/01/01 19:22:52;;;;;;;2.85;1.85;;;;;;;19.23;59.75;97387.66;10321400;28;20050;-60
2023/01/01 19:28:14;;;;;;;3.13;1.50;;;;;;;19.23;59.81;97378.72;10329086;28;20058;-58
2023/01/01 19:33:33;;;;;;;2.03;1.63;;;;;;;19.24;59.93;97380.34;10309250;28;20055;-59
2023/01/01 19:38:54;;;;;;;4.38;1.55;;;;;;;19.22;59.84;97377.16;10326781;28;20046;-58
2023/01/01 19:44:15;;;;;;;3.63;1.50;;;;;;;19.21;59.77;97375.53;10329542;28;20050;-55
2023/01/01 19:49:36;;;;;;;3.38;1.70;;;;;;;19.20;59.75;97369.34;10325113;28;20054;-53
2023/01/01 19:54:55;;;;;;;2.17;1.50;;;;;;;19.21;59.78;97372.84;10322983;28;20058;-50
2023/01/01 20:00:15;;;;;;;2.42;1.60;;;;;;;19.20;59.91;97363.16;10328980;28;20060;-53
2023/01/01 20:05:35;;;;;;;2.20;1.90;;;;;;;19.19;59.91;97362.38;10325912;28;20058;-49
2023/01/01 20:10:54;;;;;;;3.65;1.80;;;;;;;19.19;59.75;97353.44;10308990;28;20072;-51
2023/01/01 20:16:13;;;;;;;2.92;1.70;;;;;;;19.17;59.56;97349.16;10332370;28;20525;-51
2023/01/01 20:27:16;;;;;;;4.55;1.60;;;;;;;19.16;59.73;97352.94;10340027;28;20062;-47
2023/01/01 20:32:35;;;;;;;5.93;1.55;;;;;;;19.15;59.58;97345.97;10330094;28;20066;-48
2023/01/01 20:37:55;;;;;;;2.47;1.40;;;;;;;19.15;59.56;97359.47;10339751;28;20062;-47
2023/01/01 20:43:16;;;;;;;2.05;1.58;;;;;;;19.15;59.57;97359.47;10339559;28;20058;-50
2023/01/01 20:48:36;;;;;;;3.42;1.65;;;;;;;19.15;59.60;97370.28;10338594;28;20499;-54
2023/01/01 20:53:56;;;;;;;3.70;1.67;;;;;;;19.13;59.71;97367.09;10339239;28;20055;-54
2023/01/01 20:59:15;;;;;;;2.78;1.63;;;;;;;19.13;59.80;97375.19;10351796;28;20050;-51
2023/01/01 21:04:37;;;;;;;2.67;1.58;;;;;;;19.12;59.71;97376.28;10338122;28;20062;-53
2023/01/01 21:09:56;;;;;;;3.55;1.58;;;;;;;19.12;59.75;97370.09;10338142;28;20054;-52
2023/01/01 21:15:16;;;;;;;2.42;1.60;;;;;;;19.13;59.87;97371.66;10337347;28;20534;-50
2023/01/01 21:20:39;;;;;;;4.43;1.70;;;;;;;19.11;59.77;97374.69;10322396;28;20055;-50
2023/01/01 21:25:59;;;;;;;5.20;1.40;;;;;;;19.11;59.67;97363.91;10309147;28;20054;-52
2023/01/01 21:31:18;;;;;;;3.10;1.58;;;;;;;19.09;59.79;97363.41;10337221;28;20050;-54
2023/01/01 21:36:38;;;;;;;3.25;1.70;;;;;;;19.08;59.87;97364.50;10329521;28;20062;-54
2023/01/01 21:42:13;;;;;;;1.95;1.58;;;;;;;19.09;59.78;97366.13;10322396;28;20058;-53
2023/01/01 21:47:33;;;;;;;3.50;1.70;;;;;;;19.09;59.68;97354.50;10319186;28;20058;-53
2023/01/01 21:53:00;;;;;;;3.08;1.73;;;;;;;19.08;59.55;97353.69;10340958;28;20047;-51
2023/01/01 22:04:25;;;;;;;2.55;1.48;;;;;;;19.08;59.30;97344.81;10301710;28;20050;-51
2023/01/01 22:09:47;;;;;;;2.17;1.58;;;;;;;19.06;59.17;97337.00;10290561;28;20046;-52
2023/01/01 22:15:27;;;;;;;2.33;1.80;;;;;;;19.05;59.03;97335.44;10275212;28;20562;-50
2023/01/01 22:20:47;;;;;;;3.95;1.75;;;;;;;19.04;58.88;97330.31;10262018;28;20054;-52
2023/01/01 22:26:17;;;;;;;2.40;1.90;;;;;;;19.02;58.82;97319.84;10259332;28;20059;-52
2023/01/01 22:31:38;;;;;;;3.13;2.10;;;;;;;19.02;58.78;97309.03;10263531;28;20051;-52
2023/01/01 22:36:58;;;;;;;4.00;2.20;;;;;;;19.01;58.72;97310.13;10300875;28;20083;-50
2023/01/01 22:42:18;;;;;;;3.95;2.13;;;;;;;19.01;58.78;97304.72;10299811;28;20058;-52
2023/01/01 22:47:40;;;;;;;5.18;2.65;;;;;;;19.01;58.72;97303.94;10333709;28;20092;-52
2023/01/01 22:52:59;;;;;;;3.55;2.30;;;;;;;18.99;58.65;97298.84;10316821;28;20062;-51
2023/01/01 22:58:19;;;;;;;3.97;2.75;;;;;;;18.99;58.63;97295.34;10334380;28;20050;-52
2023/01/01 23:03:38;;;;;;;3.78;2.65;;;;;;;18.97;58.54;97282.16;10330272;28;20470;-52
2023/01/01 23:08:58;;;;;;;4.65;2.35;;;;;;;18.96;58.67;97283.25;10333537;28;20066;-52
2023/01/01 23:19:57;;;;;;;3.65;2.28;;;;;;;18.93;58.57;97271.19;10325340;28;20530;-52
2023/01/01 23:25:17;;;;;;;3.88;2.45;;;;;;;18.93;58.61;97267.66;10328389;28;20061;-52
2023/01/01 23:30:38;;;;;;;4.95;2.50;;;;;;;18.93;58.54;97270.38;10315551;28;20058;-52
2023/01/01 23:35:59;;;;;;;3.70;2.33;;;;;;;18.91;58.41;97259.88;10304393;28;20462;-51
2023/01/01 23:41:18;;;;;;;3.50;2.30;;;;;;;18.91;58.56;97261.78;10326042;28;20051;-52
2023/01/01 23:46:38;;;;;;;3.75;2.30;;;;;;;18.90;58.49;97257.50;10329826;28;20117;-52
2023/01/01 23:52:01;;;;;;;2.80;2.05;;;;;;;18.89;58.36;97256.69;10344631;28;20506;-52
2023/01/01 23:57:21;;;;;;;3.50;2.30;;;;;;;18.88;58.45;97247.00;10332285;28;20063;-52
